createdAt,value
2023-05-10T00:00:26.330Z,2883.00
2023-05-10T00:01:26.416Z,2872.00
2023-05-10T00:02:26.405Z,2882.00
2023-05-10T00:03:26.592Z,2866.00
2023-05-10T00:04:26.468Z,2857.00
2023-05-10T00:05:26.638Z,2855.00
2023-05-10T00:06:26.562Z,2865.00
2023-05-10T00:07:26.575Z,2857.00
2023-05-10T00:08:26.651Z,2861.00
2023-05-10T00:09:26.674Z,2858.00
2023-05-10T00:10:26.954Z,2861.00
2023-05-10T00:11:26.848Z,2850.00
2023-05-10T00:12:27.795Z,2844.00
2023-05-10T00:13:26.937Z,2835.00
2023-05-10T00:14:26.880Z,2840.00
2023-05-10T00:15:26.910Z,2836.00
2023-05-10T00:16:26.984Z,2834.00
2023-05-10T00:17:27.196Z,2825.00
2023-05-10T00:18:27.032Z,2835.00
2023-05-10T00:19:27.060Z,2840.00
2023-05-10T00:20:27.117Z,2842.00
2023-05-10T00:21:27.175Z,2839.00
2023-05-10T00:22:27.226Z,2841.00
2023-05-10T00:23:27.258Z,2848.00
2023-05-10T00:24:27.320Z,2833.00
2023-05-10T00:25:27.369Z,2839.00
2023-05-10T00:26:27.431Z,2827.00
2023-05-10T00:27:27.655Z,2823.00
2023-05-10T00:28:27.512Z,2826.00
2023-05-10T00:29:27.573Z,2806.00
2023-05-10T00:30:27.601Z,2816.00
2023-05-10T00:31:27.717Z,2806.00
2023-05-10T00:32:27.725Z,2819.00
2023-05-10T00:33:27.758Z,2821.00
2023-05-10T00:34:27.806Z,2811.00
2023-05-10T00:35:27.833Z,2806.00
2023-05-10T00:36:27.889Z,2812.00
2023-05-10T00:37:27.937Z,2807.00
2023-05-10T00:38:27.971Z,2809.00
2023-05-10T00:39:28.016Z,2805.00
2023-05-10T00:40:28.057Z,2806.00
2023-05-10T00:41:28.265Z,2813.00
2023-05-10T00:42:28.161Z,2801.00
2023-05-10T00:43:28.226Z,2807.00
2023-05-10T00:44:28.264Z,2798.00
2023-05-10T00:45:28.294Z,2804.00
2023-05-10T00:46:28.419Z,2781.00
2023-05-10T00:47:28.595Z,2789.00
2023-05-10T00:48:28.596Z,2782.00
2023-05-10T00:49:28.480Z,2793.00
2023-05-10T00:50:28.530Z,2782.00
2023-05-10T00:51:28.586Z,2782.00
2023-05-10T00:52:28.839Z,2778.00
2023-05-10T00:53:28.886Z,2779.00
2023-05-10T00:54:28.786Z,2771.00
2023-05-10T00:55:28.721Z,2782.00
2023-05-10T00:56:28.775Z,2768.00
2023-05-10T00:57:28.834Z,2748.00
2023-05-10T00:58:28.889Z,2741.00
2023-05-10T00:59:29.113Z,2749.00
2023-05-10T01:00:28.957Z,2752.00
2023-05-10T01:01:29.059Z,2756.00
2023-05-10T01:02:29.147Z,2752.00
2023-05-10T01:03:29.251Z,2740.00
2023-05-10T01:04:29.213Z,2739.00
2023-05-10T01:05:29.203Z,2726.00
2023-05-10T01:06:29.237Z,2737.00
2023-05-10T01:07:29.296Z,2733.00
2023-05-10T01:08:29.356Z,2735.00
2023-05-10T01:09:29.378Z,2746.00
2023-05-10T01:10:29.418Z,2732.00
2023-05-10T01:11:29.508Z,2744.00
2023-05-10T01:12:29.738Z,2728.00
2023-05-10T01:13:29.624Z,2728.00
2023-05-10T01:14:29.608Z,2724.00
2023-05-10T01:15:29.667Z,2728.00
2023-05-10T01:16:29.742Z,2723.00
2023-05-10T01:17:29.775Z,2728.00
2023-05-10T01:18:29.804Z,2741.00
2023-05-10T01:19:29.837Z,2739.00
2023-05-10T01:20:29.881Z,2732.00
2023-05-10T01:21:29.944Z,2733.00
2023-05-10T01:22:29.978Z,2719.00
2023-05-10T01:23:30.061Z,2712.00
2023-05-10T01:24:30.054Z,2710.00
2023-05-10T01:25:30.135Z,2714.00
2023-05-10T01:26:30.179Z,2716.00
2023-05-10T01:27:30.213Z,2716.00
2023-05-10T01:28:30.297Z,2732.00
2023-05-10T01:29:30.307Z,2727.00
2023-05-10T01:30:30.330Z,2737.00
2023-05-10T01:31:30.394Z,2723.00
2023-05-10T01:32:30.465Z,2722.00
2023-05-10T01:33:30.511Z,2742.00
2023-05-10T01:34:30.587Z,2749.00
2023-05-10T01:35:30.571Z,2743.00
2023-05-10T01:36:30.638Z,2740.00
2023-05-10T01:37:30.815Z,2739.00
2023-05-10T01:38:30.961Z,2729.00
2023-05-10T01:39:30.833Z,2722.00
2023-05-10T01:40:30.821Z,2706.00
2023-05-10T01:41:31.021Z,2700.00
2023-05-10T01:42:30.929Z,2695.00
2023-05-10T01:43:30.989Z,2690.00
2023-05-10T01:44:31.021Z,2678.00
2023-05-10T01:45:31.073Z,2668.00
2023-05-10T01:46:31.191Z,2657.00
2023-05-10T01:47:31.181Z,2650.00
2023-05-10T01:48:31.199Z,2654.00
2023-05-10T01:49:31.272Z,2640.00
2023-05-10T01:50:31.416Z,2638.00
2023-05-10T01:51:31.469Z,2620.00
2023-05-10T01:52:31.411Z,2622.00
2023-05-10T01:53:31.485Z,2604.00
2023-05-10T01:54:31.511Z,2605.00
2023-05-10T01:55:31.593Z,2601.00
2023-05-10T01:56:31.654Z,2597.00
2023-05-10T01:57:31.647Z,2578.00
2023-05-10T01:58:31.724Z,2562.00
2023-05-10T01:59:31.765Z,2586.00
2023-05-10T02:00:31.888Z,2595.00
2023-05-10T02:01:32.033Z,2594.00
2023-05-10T02:02:31.954Z,2593.00
2023-05-10T02:03:32.047Z,2595.00
2023-05-10T02:04:32.060Z,2578.00
2023-05-10T02:05:32.203Z,2567.00
2023-05-10T02:06:32.367Z,2570.00
2023-05-10T02:07:32.511Z,2598.00
2023-05-10T02:08:32.779Z,2577.00
2023-05-10T02:09:32.911Z,2573.00
2023-05-10T02:10:33.150Z,2563.00
2023-05-10T02:11:33.231Z,2576.00
2023-05-10T02:12:33.389Z,2581.00
2023-05-10T02:13:33.406Z,2564.00
2023-05-10T02:14:33.570Z,2564.00
2023-05-10T02:15:33.636Z,2578.00
2023-05-10T02:16:33.696Z,2576.00
2023-05-10T02:17:33.668Z,2570.00
2023-05-10T02:18:33.632Z,2571.00
2023-05-10T02:19:33.607Z,2562.00
2023-05-10T02:20:33.643Z,2574.00
2023-05-10T02:21:33.604Z,2561.00
2023-05-10T02:22:33.585Z,2551.00
2023-05-10T02:23:33.607Z,2566.00
2023-05-10T02:24:33.791Z,2572.00
2023-05-10T02:25:33.741Z,2550.00
2023-05-10T02:26:33.741Z,2546.00
2023-05-10T02:27:33.780Z,2547.00
2023-05-10T02:28:33.658Z,2533.00
2023-05-10T02:29:33.548Z,2521.00
2023-05-10T02:30:33.601Z,2502.00
2023-05-10T02:31:33.706Z,2491.00
2023-05-10T02:32:33.526Z,2491.00
2023-05-10T02:33:33.544Z,2480.00
2023-05-10T02:34:33.507Z,2466.00
2023-05-10T02:35:33.502Z,2482.00
2023-05-10T02:36:33.479Z,2464.00
2023-05-10T02:37:33.470Z,2443.00
2023-05-10T02:38:33.497Z,2433.00
2023-05-10T02:39:33.518Z,2465.00
2023-05-10T02:40:33.512Z,2459.00
2023-05-10T02:41:33.458Z,2452.00
2023-05-10T02:42:33.459Z,2438.00
2023-05-10T02:43:33.471Z,2458.00
2023-05-10T02:44:33.431Z,2460.00
2023-05-10T02:45:33.524Z,2456.00
2023-05-10T02:46:33.670Z,2455.00
2023-05-10T02:47:33.620Z,2436.00
2023-05-10T02:48:33.411Z,2434.00
2023-05-10T02:49:33.411Z,2425.00
2023-05-10T02:50:33.451Z,2433.00
2023-05-10T02:51:33.396Z,2438.00
2023-05-10T02:52:33.362Z,2437.00
2023-05-10T02:53:33.378Z,2432.00
2023-05-10T02:54:33.354Z,2417.00
2023-05-10T02:55:33.376Z,2422.00
2023-05-10T02:56:33.344Z,2427.00
2023-05-10T02:57:33.342Z,2418.00
2023-05-10T02:58:33.374Z,2388.00
2023-05-10T02:59:33.336Z,2395.00
2023-05-10T03:00:33.371Z,2410.00
2023-05-10T03:01:33.393Z,2408.00
2023-05-10T03:02:33.549Z,2429.00
2023-05-10T03:03:33.464Z,2422.00
2023-05-10T03:04:33.560Z,2399.00
2023-05-10T03:05:33.559Z,2385.00
2023-05-10T03:06:33.574Z,2368.00
2023-05-10T03:07:33.733Z,2363.00
2023-05-10T03:08:33.652Z,2389.00
2023-05-10T03:09:33.664Z,2365.00
2023-05-10T03:10:33.675Z,2363.00
2023-05-10T03:11:33.850Z,2373.00
2023-05-10T03:12:33.887Z,2380.00
2023-05-10T03:13:34.146Z,2383.00
2023-05-10T03:14:33.901Z,2379.00
2023-05-10T03:15:33.935Z,2384.00
2023-05-10T03:16:34.027Z,2378.00
2023-05-10T03:17:34.066Z,2368.00
2023-05-10T03:18:34.112Z,2376.00
2023-05-10T03:19:34.326Z,2370.00
2023-05-10T03:20:34.222Z,2360.00
2023-05-10T03:21:34.281Z,2354.00
2023-05-10T03:22:34.350Z,2355.00
2023-05-10T03:23:34.591Z,2367.00
2023-05-10T03:24:34.476Z,2346.00
2023-05-10T03:25:34.514Z,2346.00
2023-05-10T03:26:34.611Z,2334.00
2023-05-10T03:27:34.626Z,2343.00
2023-05-10T03:28:34.664Z,2339.00
2023-05-10T03:29:34.709Z,2331.00
2023-05-10T03:30:34.780Z,2333.00
2023-05-10T03:31:34.980Z,2346.00
2023-05-10T03:32:34.895Z,2344.00
2023-05-10T03:33:34.925Z,2368.00
2023-05-10T03:34:34.988Z,2355.00
2023-05-10T03:35:34.989Z,2366.00
2023-05-10T03:36:35.039Z,2359.00
2023-05-10T03:37:35.118Z,2349.00
2023-05-10T03:38:35.136Z,2353.00
2023-05-10T03:39:35.186Z,2352.00
2023-05-10T03:40:35.244Z,2355.00
2023-05-10T03:41:35.301Z,2374.00
2023-05-10T03:42:35.361Z,2375.00
2023-05-10T03:43:35.537Z,2371.00
2023-05-10T03:44:35.452Z,2379.00
2023-05-10T03:45:35.519Z,2378.00
2023-05-10T03:46:35.597Z,2365.00
2023-05-10T03:47:35.639Z,2370.00
2023-05-10T03:48:35.668Z,2377.00
2023-05-10T03:49:35.721Z,2370.00
2023-05-10T03:50:35.777Z,2356.00
2023-05-10T03:51:35.978Z,2365.00
2023-05-10T03:52:35.889Z,2373.00
2023-05-10T03:53:35.931Z,2356.00
2023-05-10T03:54:36.022Z,2349.00
2023-05-10T03:55:35.993Z,2347.00
2023-05-10T03:56:36.036Z,2339.00
2023-05-10T03:57:36.100Z,2337.00
2023-05-10T03:58:36.153Z,2337.00
2023-05-10T03:59:36.201Z,2342.00
2023-05-10T04:00:36.257Z,2344.00
2023-05-10T04:01:36.418Z,2330.00
2023-05-10T04:02:36.461Z,2319.00
2023-05-10T04:03:36.523Z,2295.00
2023-05-10T04:04:36.639Z,2306.00
2023-05-10T04:05:36.518Z,2299.00
2023-05-10T04:06:36.600Z,2298.00
2023-05-10T04:07:36.581Z,2294.00
2023-05-10T04:08:36.651Z,2303.00
2023-05-10T04:09:36.701Z,2285.00
2023-05-10T04:10:36.756Z,2285.00
2023-05-10T04:11:36.827Z,2283.00
2023-05-10T04:12:36.862Z,2285.00
2023-05-10T04:13:36.943Z,2273.00
2023-05-10T04:14:37.008Z,2268.00
2023-05-10T04:15:37.044Z,2255.00
2023-05-10T04:16:37.178Z,2254.00
2023-05-10T04:17:37.212Z,2249.00
2023-05-10T04:18:37.221Z,2248.00
2023-05-10T04:19:37.384Z,2237.00
2023-05-10T04:20:37.337Z,2232.00
2023-05-10T04:21:37.400Z,2227.00
2023-05-10T04:22:37.450Z,2222.00
2023-05-10T04:23:37.516Z,2234.00
2023-05-10T04:24:37.588Z,2220.00
2023-05-10T04:25:37.640Z,2230.00
2023-05-10T04:26:37.708Z,2221.00
2023-05-10T04:27:37.732Z,2227.00
2023-05-10T04:28:37.764Z,2226.00
2023-05-10T04:29:37.830Z,2227.00
2023-05-10T04:30:37.922Z,2218.00
2023-05-10T04:31:38.113Z,2232.00
2023-05-10T04:32:38.032Z,2224.00
2023-05-10T04:33:38.088Z,2208.00
2023-05-10T04:34:38.126Z,2208.00
2023-05-10T04:35:38.182Z,2213.00
2023-05-10T04:36:38.233Z,2212.00
2023-05-10T04:37:38.302Z,2201.00
2023-05-10T04:38:38.315Z,2203.00
2023-05-10T04:39:40.229Z,2189.00
2023-05-10T04:40:38.351Z,2184.00
2023-05-10T04:41:38.339Z,2176.00
2023-05-10T04:42:38.361Z,2191.00
2023-05-10T04:43:38.332Z,2195.00
2023-05-10T04:44:38.468Z,2182.00
2023-05-10T04:45:38.312Z,2173.00
2023-05-10T04:46:38.552Z,2185.00
2023-05-10T04:47:38.548Z,2178.00
2023-05-10T04:48:38.321Z,2182.00
2023-05-10T04:49:38.310Z,2178.00
2023-05-10T04:50:38.285Z,2187.00
2023-05-10T04:51:38.275Z,2185.00
2023-05-10T04:52:38.269Z,2195.00
2023-05-10T04:53:38.276Z,2213.00
2023-05-10T04:54:38.260Z,2212.00
2023-05-10T04:55:38.247Z,2216.00
2023-05-10T04:56:38.269Z,2207.00
2023-05-10T04:57:38.240Z,2214.00
2023-05-10T04:58:38.248Z,2211.00
2023-05-10T04:59:38.267Z,2226.00
2023-05-10T05:00:38.247Z,2232.00
2023-05-10T05:01:38.268Z,2230.00
2023-05-10T05:02:38.310Z,2230.00
2023-05-10T05:03:38.324Z,2237.00
2023-05-10T05:04:38.198Z,2239.00
2023-05-10T05:05:38.206Z,2236.00
2023-05-10T05:06:38.180Z,2216.00
2023-05-10T05:07:38.169Z,2210.00
2023-05-10T05:08:38.180Z,2227.00
2023-05-10T05:09:38.172Z,2229.00
2023-05-10T05:10:38.160Z,2219.00
2023-05-10T05:11:38.161Z,2232.00
2023-05-10T05:12:38.134Z,2232.00
2023-05-10T05:13:38.143Z,2247.00
2023-05-10T05:14:38.133Z,2256.00
2023-05-10T05:15:38.110Z,2272.00
2023-05-10T05:16:38.129Z,2271.00
2023-05-10T05:17:38.240Z,2292.00
2023-05-10T05:18:38.220Z,2309.00
2023-05-10T05:19:38.291Z,2315.00
2023-05-10T05:20:38.322Z,2310.00
2023-05-10T05:21:38.404Z,2318.00
2023-05-10T05:22:38.459Z,2298.00
2023-05-10T05:23:38.517Z,2284.00
2023-05-10T05:24:38.584Z,2287.00
2023-05-10T05:25:38.626Z,2292.00
2023-05-10T05:26:38.684Z,2299.00
2023-05-10T05:27:38.730Z,2313.00
2023-05-10T05:28:38.800Z,2382.00
2023-05-10T05:29:38.827Z,2426.00
2023-05-10T05:30:38.877Z,2477.00
2023-05-10T05:31:38.955Z,2531.00
2023-05-10T05:32:38.992Z,2575.00
2023-05-10T05:33:39.040Z,2657.00
2023-05-10T05:34:39.103Z,2744.00
2023-05-10T05:35:39.155Z,2807.00
2023-05-10T05:36:39.229Z,2865.00
2023-05-10T05:37:39.253Z,2961.00
2023-05-10T05:38:39.291Z,3018.00
2023-05-10T05:39:39.373Z,3068.00
2023-05-10T05:40:39.379Z,3113.00
2023-05-10T05:41:39.427Z,3167.00
2023-05-10T05:42:39.489Z,3202.00
2023-05-10T05:43:39.517Z,3244.00
2023-05-10T05:44:39.568Z,3294.00
2023-05-10T05:45:39.631Z,3329.00
2023-05-10T05:46:39.601Z,3358.00
2023-05-10T05:47:39.654Z,3393.00
2023-05-10T05:48:39.695Z,3409.00
2023-05-10T05:49:40.237Z,3453.00
2023-05-10T05:50:39.724Z,3458.00
2023-05-10T05:51:39.762Z,3479.00
2023-05-10T05:52:39.786Z,3503.00
2023-05-10T05:53:39.806Z,3531.00
2023-05-10T05:54:39.837Z,3552.00
2023-05-10T05:55:39.828Z,3549.00
2023-05-10T05:56:39.859Z,3557.00
2023-05-10T05:57:39.865Z,3545.00
2023-05-10T05:58:39.892Z,3540.00
2023-05-10T05:59:39.893Z,3546.00
2023-05-10T06:00:39.953Z,3541.00
2023-05-10T06:01:39.965Z,3537.00
2023-05-10T06:02:40.067Z,3543.00
2023-05-10T06:03:40.011Z,3531.00
2023-05-10T06:04:40.160Z,3530.00
2023-05-10T06:05:40.688Z,3528.00
2023-05-10T06:06:39.997Z,3536.00
2023-05-10T06:07:39.972Z,3533.00
2023-05-10T06:08:39.997Z,3530.00
2023-05-10T06:09:40.010Z,3521.00
2023-05-10T06:10:40.041Z,3603.00
2023-05-10T06:11:40.020Z,3711.00
2023-05-10T06:12:40.039Z,3681.00
2023-05-10T06:13:40.042Z,3632.00
2023-05-10T06:14:40.201Z,3487.00
2023-05-10T06:15:40.053Z,3479.00
2023-05-10T06:16:40.120Z,3506.00
2023-05-10T06:17:40.149Z,3507.00
2023-05-10T06:18:40.097Z,3489.00
2023-05-10T06:19:40.188Z,3495.00
2023-05-10T06:20:40.103Z,3506.00
2023-05-10T06:21:40.106Z,3508.00
2023-05-10T06:22:40.099Z,3526.00
2023-05-10T06:23:40.099Z,3543.00
2023-05-10T06:24:40.135Z,3564.00
2023-05-10T06:25:40.130Z,3567.00
2023-05-10T06:26:40.154Z,3615.00
2023-05-10T06:27:40.175Z,3696.00
2023-05-10T06:28:40.252Z,3721.00
2023-05-10T06:29:40.298Z,3767.00
2023-05-10T06:30:40.734Z,3765.00
2023-05-10T06:31:40.502Z,3769.00
2023-05-10T06:32:40.459Z,3770.00
2023-05-10T06:33:40.497Z,3815.00
2023-05-10T06:34:40.705Z,3810.00
2023-05-10T06:35:40.592Z,3789.00
2023-05-10T06:36:40.630Z,3740.00
2023-05-10T06:37:40.748Z,3748.00
2023-05-10T06:38:40.680Z,3665.00
2023-05-10T06:39:41.215Z,3522.00
2023-05-10T06:40:40.773Z,3334.00
2023-05-10T06:41:40.801Z,3149.00
2023-05-10T06:42:40.857Z,2874.00
2023-05-10T06:43:40.870Z,2819.00
2023-05-10T06:44:40.893Z,2822.00
2023-05-10T06:45:41.695Z,2695.00
2023-05-10T06:46:40.944Z,2692.00
2023-05-10T06:47:41.032Z,2726.00
2023-05-10T06:48:41.232Z,2712.00
2023-05-10T06:49:40.929Z,2645.00
2023-05-10T06:50:40.999Z,2617.00
2023-05-10T06:51:41.020Z,2598.00
2023-05-10T06:52:41.050Z,2521.00
2023-05-10T06:53:41.117Z,2526.00
2023-05-10T06:54:41.117Z,2522.00
2023-05-10T06:55:41.146Z,2500.00
2023-05-10T06:56:41.177Z,2553.00
2023-05-10T06:57:41.165Z,2501.00
2023-05-10T06:58:41.191Z,2489.00
2023-05-10T06:59:41.372Z,2504.00
2023-05-10T07:00:41.616Z,2488.00
2023-05-10T07:01:41.752Z,2493.00
2023-05-10T07:02:41.953Z,2449.00
2023-05-10T07:03:42.006Z,2441.00
2023-05-10T07:04:42.244Z,2434.00
2023-05-10T07:05:42.418Z,2409.00
2023-05-10T07:06:42.489Z,2435.00
2023-05-10T07:07:42.638Z,2423.00
2023-05-10T07:08:42.796Z,2523.00
2023-05-10T07:09:42.915Z,2738.00
2023-05-10T07:10:43.064Z,2832.00
2023-05-10T07:11:43.197Z,2916.00
2023-05-10T07:12:43.401Z,3011.00
2023-05-10T07:13:43.576Z,3049.00
2023-05-10T07:14:43.768Z,3075.00
2023-05-10T07:15:43.800Z,3112.00
2023-05-10T07:16:43.936Z,3149.00
2023-05-10T07:17:45.918Z,3176.00
2023-05-10T07:18:44.070Z,3191.00
2023-05-10T07:19:43.994Z,3214.00
2023-05-10T07:20:44.015Z,3243.00
2023-05-10T07:21:44.038Z,3257.00
2023-05-10T07:22:44.046Z,3279.00
2023-05-10T07:23:45.197Z,3298.00
2023-05-10T07:24:44.050Z,3315.00
2023-05-10T07:25:44.054Z,3312.00
2023-05-10T07:26:44.261Z,3240.00
2023-05-10T07:27:44.060Z,3213.00
2023-05-10T07:28:44.068Z,3227.00
2023-05-10T07:29:44.136Z,3136.00
2023-05-10T07:30:44.189Z,3140.00
2023-05-10T07:31:44.280Z,3198.00
2023-05-10T07:32:44.218Z,3226.00
2023-05-10T07:33:44.314Z,3256.00
2023-05-10T07:34:44.563Z,3286.00
2023-05-10T07:35:44.439Z,3300.00
2023-05-10T07:36:44.469Z,3311.00
2023-05-10T07:37:44.495Z,3321.00
2023-05-10T07:38:44.560Z,3326.00
2023-05-10T07:39:44.632Z,3300.00
2023-05-10T07:40:44.689Z,3312.00
2023-05-10T07:41:44.751Z,3326.00
2023-05-10T07:42:44.766Z,3308.00
2023-05-10T07:43:44.779Z,3317.00
2023-05-10T07:44:44.775Z,3321.00
2023-05-10T07:45:44.867Z,3254.00
2023-05-10T07:46:44.949Z,3188.00
2023-05-10T07:47:45.026Z,3110.00
2023-05-10T07:48:45.013Z,3184.00
2023-05-10T07:49:45.256Z,3119.00
2023-05-10T07:50:45.094Z,3130.00
2023-05-10T07:51:45.120Z,3081.00
2023-05-10T07:52:45.093Z,3099.00
2023-05-10T07:53:45.139Z,3136.00
2023-05-10T07:54:45.246Z,3195.00
2023-05-10T07:55:45.154Z,3211.00
2023-05-10T07:56:45.167Z,3202.00
2023-05-10T07:57:45.204Z,3170.00
2023-05-10T07:58:45.238Z,3111.00
2023-05-10T07:59:45.749Z,3145.00
2023-05-10T08:00:45.290Z,3142.00
2023-05-10T08:01:45.318Z,3126.00
2023-05-10T08:02:45.493Z,3077.00
2023-05-10T08:03:45.464Z,3118.00
2023-05-10T08:04:45.621Z,3069.00
2023-05-10T08:05:45.453Z,3068.00
2023-05-10T08:06:45.504Z,3054.00
2023-05-10T08:07:45.508Z,3043.00
2023-05-10T08:08:45.560Z,3056.00
2023-05-10T08:09:45.549Z,3068.00
2023-05-10T08:10:45.566Z,3027.00
2023-05-10T08:11:45.580Z,2973.00
2023-05-10T08:12:45.595Z,2993.00
2023-05-10T08:13:45.784Z,2984.00
2023-05-10T08:14:45.769Z,3071.00
2023-05-10T08:15:45.734Z,3132.00
2023-05-10T08:16:45.734Z,3168.00
2023-05-10T08:17:45.867Z,3190.00
2023-05-10T08:18:45.964Z,3213.00
2023-05-10T08:19:46.301Z,3244.00
2023-05-10T08:20:45.957Z,3247.00
2023-05-10T08:21:46.038Z,3250.00
2023-05-10T08:22:46.936Z,3266.00
2023-05-10T08:23:46.132Z,3387.00
2023-05-10T08:24:46.280Z,3353.00
2023-05-10T08:25:46.245Z,3381.00
2023-05-10T08:26:46.296Z,3430.00
2023-05-10T08:27:46.355Z,3473.00
2023-05-10T08:28:46.478Z,3507.00
2023-05-10T08:29:50.421Z,3537.00
2023-05-10T08:30:46.431Z,3540.00
2023-05-10T08:31:46.492Z,3548.00
2023-05-10T08:32:46.418Z,3573.00
2023-05-10T08:33:46.419Z,3561.00
2023-05-10T08:34:46.409Z,3554.00
2023-05-10T08:35:46.397Z,3482.00
2023-05-10T08:36:46.550Z,3431.00
2023-05-10T08:37:46.387Z,3384.00
2023-05-10T08:38:46.367Z,3402.00
2023-05-10T08:39:46.380Z,3382.00
2023-05-10T08:40:46.361Z,3327.00
2023-05-10T08:41:46.341Z,3297.00
2023-05-10T08:42:46.399Z,3254.00
2023-05-10T08:43:46.336Z,3112.00
2023-05-10T08:44:48.214Z,3045.00
2023-05-10T08:45:46.759Z,3052.00
2023-05-10T08:46:46.428Z,2961.00
2023-05-10T08:47:46.340Z,2895.00
2023-05-10T08:48:46.315Z,2738.00
2023-05-10T08:49:46.296Z,2627.00
2023-05-10T08:50:46.796Z,2553.00
2023-05-10T08:51:46.291Z,2452.00
2023-05-10T08:52:46.307Z,2376.00
2023-05-10T08:53:46.292Z,2315.00
2023-05-10T08:54:46.370Z,2275.00
2023-05-10T08:55:46.262Z,2251.00
2023-05-10T08:56:48.565Z,2299.00
2023-05-10T08:57:46.252Z,2302.00
2023-05-10T08:58:46.283Z,2302.00
2023-05-10T08:59:46.266Z,2322.00
2023-05-10T09:00:46.259Z,2366.00
2023-05-10T09:01:46.219Z,2389.00
2023-05-10T09:02:46.337Z,2363.00
2023-05-10T09:03:46.259Z,2383.00
2023-05-10T09:04:46.328Z,2380.00
2023-05-10T09:05:47.173Z,2404.00
2023-05-10T09:06:46.205Z,2434.00
2023-05-10T09:07:46.333Z,2482.00
2023-05-10T09:08:46.195Z,2555.00
2023-05-10T09:09:46.192Z,2560.00
2023-05-10T09:10:46.278Z,2611.00
2023-05-10T09:11:46.162Z,2612.00
2023-05-10T09:12:46.723Z,2627.00
2023-05-10T09:13:46.165Z,2643.00
2023-05-10T09:14:46.137Z,2643.00
2023-05-10T09:15:46.298Z,2653.00
2023-05-10T09:16:46.200Z,2639.00
2023-05-10T09:17:46.804Z,2638.00
2023-05-10T09:18:46.150Z,2637.00
2023-05-10T09:19:46.101Z,2656.00
2023-05-10T09:20:46.270Z,2653.00
2023-05-10T09:21:46.103Z,2657.00
2023-05-10T09:22:46.216Z,2652.00
2023-05-10T09:23:48.118Z,2643.00
2023-05-10T09:24:46.093Z,2644.00
2023-05-10T09:25:46.288Z,2636.00
2023-05-10T09:26:46.194Z,2621.00
2023-05-10T09:27:46.248Z,2510.00
2023-05-10T09:28:46.277Z,2490.00
2023-05-10T09:29:46.325Z,2535.00
2023-05-10T09:30:46.406Z,2575.00
2023-05-10T09:31:46.415Z,2638.00
2023-05-10T09:32:46.512Z,2642.00
2023-05-10T09:33:46.547Z,2714.00
2023-05-10T09:34:46.557Z,2774.00
2023-05-10T09:35:46.786Z,2818.00
2023-05-10T09:36:46.679Z,2862.00
2023-05-10T09:37:46.719Z,2862.00
2023-05-10T09:38:46.784Z,2889.00
2023-05-10T09:39:46.864Z,3003.00
2023-05-10T09:40:47.278Z,3138.00
2023-05-10T09:41:46.954Z,3229.00
2023-05-10T09:42:47.003Z,3311.00
2023-05-10T09:43:47.072Z,3305.00
2023-05-10T09:44:47.136Z,3332.00
2023-05-10T09:45:47.313Z,3343.00
2023-05-10T09:46:47.225Z,3336.00
2023-05-10T09:47:47.288Z,3342.00
2023-05-10T09:48:47.314Z,3378.00
2023-05-10T09:49:47.351Z,3370.00
2023-05-10T09:50:47.401Z,3373.00
2023-05-10T09:51:47.507Z,3345.00
2023-05-10T09:52:47.502Z,3323.00
2023-05-10T09:53:47.533Z,3278.00
2023-05-10T09:54:47.538Z,3272.00
2023-05-10T09:55:47.627Z,3259.00
2023-05-10T09:56:47.633Z,3261.00
2023-05-10T09:57:47.665Z,3261.00
2023-05-10T09:58:47.710Z,3251.00
2023-05-10T09:59:47.735Z,3225.00
2023-05-10T10:00:47.791Z,3186.00
2023-05-10T10:01:47.819Z,3159.00
2023-05-10T10:02:47.870Z,3126.00
2023-05-10T10:03:47.865Z,3101.00
2023-05-10T10:04:47.933Z,3079.00
2023-05-10T10:05:47.958Z,3039.00
2023-05-10T10:06:47.977Z,3026.00
2023-05-10T10:07:48.055Z,3023.00
2023-05-10T10:08:48.193Z,2992.00
2023-05-10T10:09:48.357Z,2965.00
2023-05-10T10:10:48.509Z,2924.00
2023-05-10T10:11:48.644Z,2927.00
2023-05-10T10:12:48.823Z,2931.00
2023-05-10T10:13:48.990Z,2960.00
2023-05-10T10:14:49.118Z,2896.00
2023-05-10T10:15:49.352Z,2938.00
2023-05-10T10:17:05.055Z,2960.00
2023-05-10T10:17:50.435Z,2962.00
2023-05-10T10:18:49.420Z,2876.00
2023-05-10T10:19:49.415Z,2649.00
2023-05-10T10:20:49.383Z,2556.00
2023-05-10T10:21:49.390Z,2453.00
2023-05-10T10:22:49.384Z,2434.00
2023-05-10T10:23:49.372Z,2384.00
2023-05-10T10:24:49.377Z,2252.00
2023-05-10T10:25:49.369Z,2274.00
2023-05-10T10:26:49.355Z,2043.00
2023-05-10T10:27:49.361Z,1812.00
2023-05-10T10:28:49.327Z,1699.00
2023-05-10T10:29:49.375Z,1550.00
2023-05-10T10:30:49.399Z,1434.00
2023-05-10T10:31:49.556Z,1294.00
2023-05-10T10:32:49.463Z,1162.00
2023-05-10T10:33:49.461Z,1057.00
2023-05-10T10:34:49.466Z,953.00
2023-05-10T10:35:49.856Z,912.00
2023-05-10T10:36:49.477Z,847.00
2023-05-10T10:37:49.534Z,694.00
2023-05-10T10:38:49.540Z,641.00
2023-05-10T10:39:49.574Z,669.00
2023-05-10T10:40:49.644Z,819.00
2023-05-10T10:41:49.621Z,922.00
2023-05-10T10:42:49.680Z,1031.00
2023-05-10T10:43:49.735Z,1072.00
2023-05-10T10:44:49.753Z,1138.00
2023-05-10T10:45:49.785Z,1175.00
2023-05-10T10:46:49.859Z,1217.00
2023-05-10T10:47:49.885Z,1253.00
2023-05-10T10:48:49.860Z,1287.00
2023-05-10T10:49:49.908Z,1318.00
2023-05-10T10:50:49.918Z,1365.00
2023-05-10T10:51:49.929Z,1403.00
2023-05-10T10:52:50.022Z,1430.00
2023-05-10T10:53:49.927Z,1446.00
2023-05-10T10:54:49.939Z,1470.00
2023-05-10T10:55:49.962Z,1500.00
2023-05-10T10:56:49.966Z,1533.00
2023-05-10T10:57:49.965Z,1558.00
2023-05-10T10:58:49.977Z,1569.00
2023-05-10T10:59:49.976Z,1598.00
2023-05-10T11:00:50.028Z,1641.00
2023-05-10T11:01:49.979Z,1707.00
2023-05-10T11:02:50.111Z,1739.00
2023-05-10T11:03:50.032Z,1791.00
2023-05-10T11:04:50.242Z,1879.00
2023-05-10T11:05:50.025Z,1920.00
2023-05-10T11:06:50.053Z,1998.00
2023-05-10T11:07:50.044Z,2074.00
2023-05-10T11:08:50.067Z,2126.00
2023-05-10T11:09:50.084Z,2159.00
2023-05-10T11:10:50.137Z,2200.00
2023-05-10T11:11:50.144Z,2250.00
2023-05-10T11:12:50.163Z,2311.00
2023-05-10T11:13:51.447Z,2352.00
2023-05-10T11:14:50.230Z,2359.00
2023-05-10T11:15:50.369Z,2365.00
2023-05-10T11:16:50.372Z,2358.00
2023-05-10T11:17:50.423Z,2364.00
2023-05-10T11:18:50.479Z,2382.00
2023-05-10T11:19:50.465Z,2395.00
2023-05-10T11:20:50.565Z,2405.00
2023-05-10T11:21:50.623Z,2420.00
2023-05-10T11:22:50.651Z,2459.00
2023-05-10T11:23:50.728Z,2489.00
2023-05-10T11:24:50.776Z,2470.00
2023-05-10T11:25:50.869Z,2487.00
2023-05-10T11:26:50.977Z,2470.00
2023-05-10T11:27:50.967Z,2492.00
2023-05-10T11:28:50.991Z,2492.00
2023-05-10T11:29:51.035Z,2526.00
2023-05-10T11:30:51.131Z,2515.00
2023-05-10T11:31:51.170Z,2515.00
2023-05-10T11:32:51.251Z,2520.00
2023-05-10T11:33:51.308Z,2537.00
2023-05-10T11:34:51.337Z,2581.00
2023-05-10T11:35:51.421Z,2581.00
2023-05-10T11:36:51.489Z,2565.00
2023-05-10T11:37:51.528Z,2556.00
2023-05-10T11:38:51.625Z,2533.00
2023-05-10T11:39:51.671Z,2538.00
2023-05-10T11:40:51.740Z,2552.00
2023-05-10T11:41:51.803Z,2535.00
2023-05-10T11:42:51.866Z,2536.00
2023-05-10T11:43:51.934Z,2536.00
2023-05-10T11:44:52.012Z,2538.00
2023-05-10T11:45:52.100Z,2516.00
2023-05-10T11:46:52.119Z,2521.00
2023-05-10T11:47:52.152Z,2530.00
2023-05-10T11:48:52.171Z,2520.00
2023-05-10T11:49:52.220Z,2501.00
2023-05-10T11:50:52.276Z,2494.00
2023-05-10T11:51:52.364Z,2470.00
2023-05-10T11:52:52.400Z,2474.00
2023-05-10T11:53:52.469Z,2473.00
2023-05-10T11:54:52.529Z,2468.00
2023-05-10T11:55:52.588Z,2468.00
2023-05-10T11:56:52.650Z,2439.00
2023-05-10T11:57:52.682Z,2449.00
2023-05-10T11:58:52.698Z,2410.00
2023-05-10T11:59:52.760Z,2412.00
2023-05-10T12:00:52.797Z,2422.00
2023-05-10T12:01:52.891Z,2411.00
2023-05-10T12:02:52.947Z,2428.00
2023-05-10T12:03:53.073Z,2425.00
2023-05-10T12:04:53.094Z,2406.00
2023-05-10T12:05:53.067Z,2391.00
2023-05-10T12:06:53.376Z,2391.00